Time;durP1;ratioP1;P1;durP2;ratioP2;P2;SDS_P1;SDS_P2;PMS_P1;PMS_P2;Temp;Humidity;BMP_temperature;BMP_pressure;BME280_temperature;BME280_humidity;BME280_pressure;Samples;Min_cycle;Max_cycle;Signal;HPM_P1;HPM_P2
2020/12/24 00:01:57;;;;;;;;;;;;;;;;;;5044706;28;20312;-73
2020/12/24 00:04:23;;;;;;;;;;;;;;;;;;5032334;28;21634;-73
2020/12/24 00:06:49;;;;;;;;;;;;;;;;;;5050477;28;19952;-72
2020/12/24 00:09:15;;;;;;;;;;;;;;;;;;5031678;28;20000;-73
2020/12/24 00:11:41;;;;;;;;;;;;;;;;;;5049846;28;19917;-72
2020/12/24 00:14:07;;;;;;;;;;;;;;;;;;5032302;28;19912;-72
2020/12/24 00:16:33;;;;;;;;;;;;;;;;;;5042938;28;19921;-72
2020/12/24 00:18:59;;;;;;;;;;;;;;;;;;5032049;28;20334;-72
2020/12/24 00:21:25;;;;;;;;;;;;;;;;;;5039715;28;20432;-72
2020/12/24 00:23:51;;;;;;;;;;;;;;;;;;5047899;28;19928;-73
2020/12/24 00:26:16;;;;;;;;;;;;;;;;;;5048562;28;20412;-73
2020/12/24 00:28:42;;;;;;;;;;;;;;;;;;5047049;28;19967;-73
2020/12/24 00:31:08;;;;;;;;;;;;;;;;;;5044657;28;19944;-72
2020/12/24 00:33:34;;;;;;;;;;;;;;;;;;5031814;28;20007;-73
2020/12/24 00:36:00;;;;;;;;;;;;;;;;;;5046673;28;20447;-72
2020/12/24 00:38:26;;;;;;;;;;;;;;;;;;5042660;28;19973;-72
2020/12/24 00:40:53;;;;;;;;;;;;;;;;;;5026540;28;19912;-72
2020/12/24 00:43:19;;;;;;;;;;;;;;;;;;5048187;28;20324;-72
2020/12/24 00:45:45;;;;;;;;;;;;;;;;;;5032294;28;19912;-73
2020/12/24 00:48:11;;;;;;;;;;;;;;;;;;5031463;28;19959;-72
2020/12/24 00:50:37;;;;;;;;;;;;;;;;;;5033018;28;19982;-73
2020/12/24 00:53:03;;;;;;;;;;;;;;;;;;5045582;28;19989;-73
2020/12/24 00:55:28;;;;;;;;;;;;;;;;;;5048239;28;20016;-70
2020/12/24 00:57:54;;;;;;;;;;;;;;;;;;5032043;28;19912;-73
2020/12/24 01:00:20;;;;;;;;;;;;;;;;;;5030829;28;19954;-73
2020/12/24 01:02:46;;;;;;;;;;;;;;;;;;5048271;28;19979;-72
2020/12/24 01:05:12;;;;;;;;;;;;;;;;;;5031919;28;20035;-73
2020/12/24 01:07:38;;;;;;;;;;;;;;;;;;5042550;28;19963;-73
2020/12/24 01:10:04;;;;;;;;;;;;;;;;;;5047192;28;19920;-73
2020/12/24 01:12:30;;;;;;;;;;;;;;;;;;5042402;28;19952;-73
2020/12/24 01:14:56;;;;;;;;;;;;;;;;;;5030519;28;19940;-73
2020/12/24 01:17:22;;;;;;;;;;;;;;;;;;5047884;28;19951;-72
2020/12/24 01:19:47;;;;;;;;;;;;;;;;;;5031291;28;19967;-72
2020/12/24 01:22:13;;;;;;;;;;;;;;;;;;5030694;28;20003;-72
2020/12/24 01:24:39;;;;;;;;;;;;;;;;;;5045986;28;20395;-72
2020/12/24 01:27:05;;;;;;;;;;;;;;;;;;5046514;28;19957;-70
2020/12/24 01:29:31;;;;;;;;;;;;;;;;;;5049491;28;19960;-71
2020/12/24 01:31:57;;;;;;;;;;;;;;;;;;5046016;28;19944;-72
2020/12/24 01:34:23;;;;;;;;;;;;;;;;;;5045601;28;19920;-72
2020/12/24 01:36:49;;;;;;;;;;;;;;;;;;5046438;28;19986;-72
2020/12/24 01:39:15;;;;;;;;;;;;;;;;;;5037080;28;20056;-72
2020/12/24 01:41:41;;;;;;;;;;;;;;;;;;5049592;28;20444;-72
2020/12/24 01:44:06;;;;;;;;;;;;;;;;;;5042060;28;20364;-72
2020/12/24 01:46:32;;;;;;;;;;;;;;;;;;5029860;28;20004;-72
2020/12/24 01:48:58;;;;;;;;;;;;;;;;;;5047464;28;19966;-72
2020/12/24 01:51:24;;;;;;;;;;;;;;;;;;5043148;28;19961;-72
2020/12/24 01:53:50;;;;;;;;;;;;;;;;;;5032550;28;19999;-72
2020/12/24 01:56:16;;;;;;;;;;;;;;;;;;5040089;28;19944;-71
2020/12/24 01:58:42;;;;;;;;;;;;;;;;;;5047154;28;20427;-72
2020/12/24 02:01:08;;;;;;;;;;;;;;;;;;5048777;28;19955;-72
2020/12/24 02:03:34;;;;;;;;;;;;;;;;;;5025075;28;20008;-72
2020/12/24 02:06:00;;;;;;;;;;;;;;;;;;5030069;28;19913;-72
2020/12/24 02:08:26;;;;;;;;;;;;;;;;;;5029108;28;19971;-72
2020/12/24 02:10:51;;;;;;;;;;;;;;;;;;5046986;28;20655;-72
2020/12/24 02:13:17;;;;;;;;;;;;;;;;;;5047899;28;19919;-72
2020/12/24 02:15:43;;;;;;;;;;;;;;;;;;5040193;28;20002;-72
2020/12/24 02:18:09;;;;;;;;;;;;;;;;;;5045704;28;20359;-72
2020/12/24 02:20:35;;;;;;;;;;;;;;;;;;5042254;28;19913;-72
2020/12/24 02:23:01;;;;;;;;;;;;;;;;;;5047090;28;20041;-71
2020/12/24 02:25:27;;;;;;;;;;;;;;;;;;5047908;28;20350;-72
2020/12/24 02:27:53;;;;;;;;;;;;;;;;;;5045844;28;20003;-71
2020/12/24 02:30:19;;;;;;;;;;;;;;;;;;5040506;28;19921;-71
2020/12/24 02:32:44;;;;;;;;;;;;;;;;;;5047628;28;19990;-71
2020/12/24 02:35:10;;;;;;;;;;;;;;;;;;5039176;28;20344;-72
2020/12/24 02:37:36;;;;;;;;;;;;;;;;;;5036648;28;19999;-71
2020/12/24 02:40:02;;;;;;;;;;;;;;;;;;5037068;28;20011;-72
2020/12/24 02:42:28;;;;;;;;;;;;;;;;;;5039454;28;20300;-71
2020/12/24 02:44:54;;;;;;;;;;;;;;;;;;5043681;28;19958;-71
2020/12/24 02:47:20;;;;;;;;;;;;;;;;;;5034367;28;19913;-70
2020/12/24 02:49:46;;;;;;;;;;;;;;;;;;5040594;28;20429;-71
2020/12/24 02:52:12;;;;;;;;;;;;;;;;;;5030204;28;19943;-71
2020/12/24 02:54:38;;;;;;;;;;;;;;;;;;5050471;28;19923;-72
2020/12/24 02:57:04;;;;;;;;;;;;;;;;;;5045477;28;20382;-72
2020/12/24 02:59:30;;;;;;;;;;;;;;;;;;5050094;28;19936;-71
2020/12/24 03:01:55;;;;;;;;;;;;;;;;;;5049670;28;20008;-71
2020/12/24 03:04:21;;;;;;;;;;;;;;;;;;5049716;28;19956;-71
2020/12/24 03:06:47;;;;;;;;;;;;;;;;;;5032729;28;19964;-71
2020/12/24 03:09:13;;;;;;;;;;;;;;;;;;5042333;28;19917;-72
2020/12/24 03:11:39;;;;;;;;;;;;;;;;;;5052452;28;20092;-72
2020/12/24 03:14:05;;;;;;;;;;;;;;;;;;5050112;28;20392;-72
2020/12/24 03:16:31;;;;;;;;;;;;;;;;;;5051507;28;19920;-72
2020/12/24 03:18:57;;;;;;;;;;;;;;;;;;5049365;28;19961;-72
2020/12/24 03:21:23;;;;;;;;;;;;;;;;;;5049959;28;20348;-70
2020/12/24 03:23:49;;;;;;;;;;;;;;;;;;5051004;28;19920;-72
2020/12/24 03:26:15;;;;;;;;;;;;;;;;;;5049636;28;19916;-72
2020/12/24 03:28:41;;;;;;;;;;;;;;;;;;5049931;28;20339;-71
2020/12/24 03:31:06;;;;;;;;;;;;;;;;;;5050969;28;19924;-72
2020/12/24 03:33:32;;;;;;;;;;;;;;;;;;5048946;28;19949;-72
2020/12/24 03:35:58;;;;;;;;;;;;;;;;;;5033857;28;19991;-71
2020/12/24 03:38:24;;;;;;;;;;;;;;;;;;5049564;28;20322;-72
2020/12/24 03:40:50;;;;;;;;;;;;;;;;;;5040250;28;19974;-72
2020/12/24 03:43:16;;;;;;;;;;;;;;;;;;5044401;28;20027;-71
2020/12/24 03:45:42;;;;;;;;;;;;;;;;;;5045989;28;19917;-72
2020/12/24 03:48:08;;;;;;;;;;;;;;;;;;5047156;28;19916;-71
2020/12/24 03:50:34;;;;;;;;;;;;;;;;;;5046636;28;19920;-72
2020/12/24 03:53:00;;;;;;;;;;;;;;;;;;5043509;28;19979;-72
2020/12/24 03:55:25;;;;;;;;;;;;;;;;;;5044409;28;20565;-73
2020/12/24 03:57:51;;;;;;;;;;;;;;;;;;5044352;28;19952;-72
2020/12/24 04:00:17;;;;;;;;;;;;;;;;;;5046930;28;19975;-72
2020/12/24 04:02:43;;;;;;;;;;;;;;;;;;5047772;28;20003;-73
2020/12/24 04:05:09;;;;;;;;;;;;;;;;;;5038994;28;19927;-72
2020/12/24 04:07:35;;;;;;;;;;;;;;;;;;5046345;28;20395;-72
2020/12/24 04:10:01;;;;;;;;;;;;;;;;;;5045316;28;19966;-72
2020/12/24 04:12:27;;;;;;;;;;;;;;;;;;5030111;28;19939;-72
2020/12/24 04:14:53;;;;;;;;;;;;;;;;;;5048581;28;20749;-72
2020/12/24 04:17:19;;;;;;;;;;;;;;;;;;5045602;28;20125;-72
2020/12/24 04:19:44;;;;;;;;;;;;;;;;;;5046104;28;19923;-72
2020/12/24 04:22:10;;;;;;;;;;;;;;;;;;5044591;28;19916;-72
2020/12/24 04:24:36;;;;;;;;;;;;;;;;;;5028472;28;20399;-72
2020/12/24 04:27:02;;;;;;;;;;;;;;;;;;5046794;28;19971;-72
2020/12/24 04:29:28;;;;;;;;;;;;;;;;;;5045851;28;20352;-72
2020/12/24 04:31:54;;;;;;;;;;;;;;;;;;5047139;28;20003;-72
2020/12/24 04:34:20;;;;;;;;;;;;;;;;;;5049393;28;19932;-72
2020/12/24 04:36:46;;;;;;;;;;;;;;;;;;5046373;28;19913;-72
2020/12/24 04:39:12;;;;;;;;;;;;;;;;;;5033124;28;20360;-72
2020/12/24 04:41:38;;;;;;;;;;;;;;;;;;5045349;28;19999;-72
2020/12/24 04:44:04;;;;;;;;;;;;;;;;;;5049379;28;19935;-72
2020/12/24 04:46:29;;;;;;;;;;;;;;;;;;5050120;28;20376;-72
2020/12/24 04:48:55;;;;;;;;;;;;;;;;;;5042850;28;19917;-72
2020/12/24 04:51:21;;;;;;;;;;;;;;;;;;5047372;28;19991;-72
2020/12/24 04:53:47;;;;;;;;;;;;;;;;;;5049820;28;20011;-72
2020/12/24 04:56:13;;;;;;;;;;;;;;;;;;5037680;28;19961;-72
2020/12/24 04:58:39;;;;;;;;;;;;;;;;;;5041122;28;19951;-72
2020/12/24 05:01:05;;;;;;;;;;;;;;;;;;5038690;28;20359;-72
2020/12/24 05:03:31;;;;;;;;;;;;;;;;;;5049846;28;20004;-72
2020/12/24 05:05:58;;;;;;;;;;;;;;;;;;5049012;28;19913;-73
2020/12/24 05:08:24;;;;;;;;;;;;;;;;;;5041595;28;20331;-72
2020/12/24 05:10:50;;;;;;;;;;;;;;;;;;5047389;28;19956;-72
2020/12/24 05:13:16;;;;;;;;;;;;;;;;;;5051473;28;19952;-73
2020/12/24 05:15:42;;;;;;;;;;;;;;;;;;5049589;28;19992;-73
2020/12/24 05:18:08;;;;;;;;;;;;;;;;;;5050901;28;19916;-72
2020/12/24 05:20:34;;;;;;;;;;;;;;;;;;5049432;28;19944;-72
2020/12/24 05:23:00;;;;;;;;;;;;;;;;;;5033992;28;19940;-71
2020/12/24 05:25:26;;;;;;;;;;;;;;;;;;5045485;28;20430;-72
2020/12/24 05:27:51;;;;;;;;;;;;;;;;;;5048885;28;19992;-72
2020/12/24 05:30:17;;;;;;;;;;;;;;;;;;5047927;28;19952;-72
2020/12/24 05:32:43;;;;;;;;;;;;;;;;;;5048356;28;20323;-73
2020/12/24 05:35:09;;;;;;;;;;;;;;;;;;5050352;28;19940;-72
2020/12/24 05:37:35;;;;;;;;;;;;;;;;;;5049629;28;19952;-72
2020/12/24 05:40:01;;;;;;;;;;;;;;;;;;5048454;28;19959;-72
2020/12/24 05:42:27;;;;;;;;;;;;;;;;;;5075174;23;19963;-69
2020/12/24 05:44:53;;;;;;;;;;;;;;;;;;5042413;28;19999;-70
2020/12/24 05:47:19;;;;;;;;;;;;;;;;;;5068516;28;19921;-70
2020/12/24 05:49:45;;;;;;;;;;;;;;;;;;5051799;28;20415;-70
2020/12/24 05:52:10;;;;;;;;;;;;;;;;;;5073780;28;19959;-70
2020/12/24 05:54:36;;;;;;;;;;;;;;;;;;5058708;28;19994;-72
2020/12/24 05:57:02;;;;;;;;;;;;;;;;;;5056111;28;20029;-71
2020/12/24 05:59:28;;;;;;;;;;;;;;;;;;5068604;28;19912;-73
2020/12/24 06:01:54;;;;;;;;;;;;;;;;;;5072423;28;19912;-73
2020/12/24 06:04:20;;;;;;;;;;;;;;;;;;5062653;28;19912;-72
2020/12/24 06:06:46;;;;;;;;;;;;;;;;;;5104612;28;20002;-72
2020/12/24 06:09:13;;;;;;;;;;;;;;;;;;5109921;28;20007;-72
2020/12/24 06:11:39;;;;;;;;;;;;;;;;;;5102606;28;19916;-73
2020/12/24 06:14:05;;;;;;;;;;;;;;;;;;5100041;28;19918;-72
2020/12/24 06:16:31;;;;;;;;;;;;;;;;;;5085679;28;19919;-72
2020/12/24 06:18:57;;;;;;;;;;;;;;;;;;5103530;28;20373;-71
2020/12/24 06:21:23;;;;;;;;;;;;;;;;;;5088920;28;19915;-72
2020/12/24 06:23:49;;;;;;;;;;;;;;;;;;5082781;28;19912;-72
2020/12/24 06:26:15;;;;;;;;;;;;;;;;;;5107406;28;20331;-73
2020/12/24 06:28:41;;;;;;;;;;;;;;;;;;5097763;28;19916;-71
2020/12/24 06:31:06;;;;;;;;;;;;;;;;;;5102630;28;20003;-71
2020/12/24 06:33:32;;;;;;;;;;;;;;;;;;5103058;28;19924;-71
2020/12/24 06:35:58;;;;;;;;;;;;;;;;;;5105858;28;20340;-71
2020/12/24 06:38:24;;;;;;;;;;;;;;;;;;5103332;27;19918;-72
2020/12/24 06:40:50;;;;;;;;;;;;;;;;;;5082034;28;20006;-72
2020/12/24 06:43:16;;;;;;;;;;;;;;;;;;5091887;28;20010;-72
2020/12/24 06:45:43;;;;;;;;;;;;;;;;;;5088458;28;19918;-72
2020/12/24 06:48:09;;;;;;;;;;;;;;;;;;5084514;27;20310;-72
2020/12/24 06:50:35;;;;;;;;;;;;;;;;;;5100974;28;19924;-71
2020/12/24 06:53:01;;;;;;;;;;;;;;;;;;5086904;28;19912;-71
2020/12/24 06:55:27;;;;;;;;;;;;;;;;;;5084115;28;19929;-71
2020/12/24 06:57:53;;;;;;;;;;;;;;;;;;5078997;28;20448;-71
2020/12/24 07:00:19;;;;;;;;;;;;;;;;;;5085413;28;20006;-72
2020/12/24 07:02:45;;;;;;;;;;;;;;;;;;5099687;28;19984;-71
2020/12/24 07:05:11;;;;;;;;;;;;;;;;;;5127597;28;19947;-71
2020/12/24 07:07:37;;;;;;;;;;;;;;;;;;5107306;28;19912;-72
2020/12/24 07:10:03;;;;;;;;;;;;;;;;;;5121274;27;19912;-71
2020/12/24 07:12:28;;;;;;;;;;;;;;;;;;5087330;28;19982;-72
2020/12/24 07:14:54;;;;;;;;;;;;;;;;;;5101765;28;20382;-72
2020/12/24 07:17:20;;;;;;;;;;;;;;;;;;5113376;28;20006;-71
2020/12/24 07:19:48;;;;;;;;;;;;;;;;;;5086713;27;22239;-73
2020/12/24 07:22:14;;;;;;;;;;;;;;;;;;5105905;28;20260;-73
2020/12/24 07:24:40;;;;;;;;;;;;;;;;;;5106962;28;19926;-72
2020/12/24 07:27:06;;;;;;;;;;;;;;;;;;5100135;27;20379;-72
2020/12/24 07:29:32;;;;;;;;;;;;;;;;;;5100846;28;19955;-72
2020/12/24 07:31:58;;;;;;;;;;;;;;;;;;5103744;28;20016;-72
2020/12/24 07:34:24;;;;;;;;;;;;;;;;;;5080898;28;20354;-72
2020/12/24 07:36:50;;;;;;;;;;;;;;;;;;5101076;28;19914;-72
2020/12/24 07:39:16;;;;;;;;;;;;;;;;;;5112791;28;19958;-72
2020/12/24 07:41:42;;;;;;;;;;;;;;;;;;5113574;28;19963;-72
2020/12/24 07:44:08;;;;;;;;;;;;;;;;;;5113337;28;20014;-72
2020/12/24 07:46:34;;;;;;;;;;;;;;;;;;5109361;28;20440;-72
2020/12/24 07:48:59;;;;;;;;;;;;;;;;;;5076325;28;19919;-71
2020/12/24 07:51:25;;;;;;;;;;;;;;;;;;5083835;28;19918;-71
2020/12/24 07:53:51;;;;;;;;;;;;;;;;;;5107150;28;20413;-72
2020/12/24 07:56:17;;;;;;;;;;;;;;;;;;5104169;28;19995;-72
2020/12/24 07:58:45;;;;;;;;;;;;;;;;;;5081130;28;19939;-71
2020/12/24 08:01:11;;;;;;;;;;;;;;;;;;5108936;28;20298;-71
2020/12/24 08:03:36;;;;;;;;;;;;;;;;;;5107913;28;19951;-71
2020/12/24 08:06:02;;;;;;;;;;;;;;;;;;5101905;28;19955;-68
2020/12/24 08:08:28;;;;;;;;;;;;;;;;;;5111439;28;19951;-71
2020/12/24 08:10:54;;;;;;;;;;;;;;;;;;5105966;28;19916;-71
2020/12/24 08:13:20;;;;;;;;;;;;;;;;;;5096809;28;19911;-71
2020/12/24 08:15:46;;;;;;;;;;;;;;;;;;5100913;28;20441;-70
2020/12/24 08:18:12;;;;;;;;;;;;;;;;;;5099456;28;19957;-67
2020/12/24 08:20:38;;;;;;;;;;;;;;;;;;5104191;28;19919;-70
2020/12/24 08:23:04;;;;;;;;;;;;;;;;;;5085543;28;19951;-70
2020/12/24 08:25:30;;;;;;;;;;;;;;;;;;5107239;28;20375;-71
2020/12/24 08:27:56;;;;;;;;;;;;;;;;;;5098362;28;19947;-70
2020/12/24 08:30:22;;;;;;;;;;;;;;;;;;5088450;28;19997;-71
2020/12/24 08:32:47;;;;;;;;;;;;;;;;;;5097624;28;20397;-72
2020/12/24 08:35:13;;;;;;;;;;;;;;;;;;5100321;28;19912;-71
2020/12/24 08:37:39;;;;;;;;;;;;;;;;;;5096778;28;20195;-71
2020/12/24 08:40:05;;;;;;;;;;;;;;;;;;5100957;28;19912;-70
2020/12/24 08:42:31;;;;;;;;;;;;;;;;;;5083056;28;19916;-71
2020/12/24 08:44:57;;;;;;;;;;;;;;;;;;5085294;28;19912;-71
2020/12/24 08:47:23;;;;;;;;;;;;;;;;;;5096194;28;19916;-71
2020/12/24 08:49:49;;;;;;;;;;;;;;;;;;5098261;28;20024;-70
2020/12/24 08:52:17;;;;;;;;;;;;;;;;;;5102483;28;19926;-70
2020/12/24 08:54:43;;;;;;;;;;;;;;;;;;5104045;28;19916;-71
2020/12/24 08:57:09;;;;;;;;;;;;;;;;;;5104000;28;19918;-70
2020/12/24 08:59:35;;;;;;;;;;;;;;;;;;5083866;28;19997;-71
2020/12/24 09:02:01;;;;;;;;;;;;;;;;;;5075351;28;20004;-71
2020/12/24 09:04:27;;;;;;;;;;;;;;;;;;5097857;28;20525;-70
2020/12/24 09:06:53;;;;;;;;;;;;;;;;;;5106124;28;19921;-72
2020/12/24 09:09:19;;;;;;;;;;;;;;;;;;5105122;28;19989;-71
2020/12/24 09:11:45;;;;;;;;;;;;;;;;;;5103481;28;20026;-71
2020/12/24 09:14:10;;;;;;;;;;;;;;;;;;5103309;28;19958;-73
2020/12/24 09:16:36;;;;;;;;;;;;;;;;;;5083473;28;20384;-71
2020/12/24 09:19:02;;;;;;;;;;;;;;;;;;5083226;28;19969;-72
2020/12/24 09:21:28;;;;;;;;;;;;;;;;;;5108442;28;19911;-72
2020/12/24 09:23:54;;;;;;;;;;;;;;;;;;5111479;28;19948;-73
2020/12/24 09:26:20;;;;;;;;;;;;;;;;;;5096262;28;19938;-73
2020/12/24 09:28:46;;;;;;;;;;;;;;;;;;5110861;28;19938;-71
2020/12/24 09:31:13;;;;;;;;;;;;;;;;;;5080820;28;19944;-71
2020/12/24 09:33:39;;;;;;;;;;;;;;;;;;5075573;28;20371;-71
2020/12/24 09:36:05;;;;;;;;;;;;;;;;;;5086586;28;20053;-71
2020/12/24 09:38:31;;;;;;;;;;;;;;;;;;5092597;28;19998;-70
2020/12/24 09:40:57;;;;;;;;;;;;;;;;;;5105341;28;20552;-72
2020/12/24 09:43:23;;;;;;;;;;;;;;;;;;5089576;28;19920;-70
2020/12/24 09:45:48;;;;;;;;;;;;;;;;;;5101547;28;19908;-72
2020/12/24 09:48:14;;;;;;;;;;;;;;;;;;5104693;28;20383;-70
2020/12/24 09:50:40;;;;;;;;;;;;;;;;;;5104510;28;19916;-73
2020/12/24 09:53:06;;;;;;;;;;;;;;;;;;5107523;28;20000;-71
2020/12/24 09:55:32;;;;;;;;;;;;;;;;;;5084635;28;19984;-72
2020/12/24 09:57:58;;;;;;;;;;;;;;;;;;5104059;28;19952;-71
2020/12/24 10:00:24;;;;;;;;;;;;;;;;;;5101853;28;19912;-70
2020/12/24 10:02:50;;;;;;;;;;;;;;;;;;5091554;28;19908;-70
2020/12/24 10:05:16;;;;;;;;;;;;;;;;;;5105752;28;19934;-71
2020/12/24 10:07:42;;;;;;;;;;;;;;;;;;5104929;28;19978;-69
2020/12/24 10:10:08;;;;;;;;;;;;;;;;;;5104743;28;19978;-71
2020/12/24 10:12:34;;;;;;;;;;;;;;;;;;5105096;28;20002;-72
2020/12/24 10:15:00;;;;;;;;;;;;;;;;;;5105085;28;20492;-71
2020/12/24 10:17:26;;;;;;;;;;;;;;;;;;5096478;28;19915;-70
2020/12/24 10:19:53;;;;;;;;;;;;;;;;;;5111013;28;19943;-70
2020/12/24 10:22:19;;;;;;;;;;;;;;;;;;5080139;28;19927;-70
2020/12/24 10:24:45;;;;;;;;;;;;;;;;;;5094406;28;19947;-70
2020/12/24 10:27:10;;;;;;;;;;;;;;;;;;5070798;28;19974;-69
2020/12/24 10:29:36;;;;;;;;;;;;;;;;;;5089223;28;20360;-71
2020/12/24 10:32:02;;;;;;;;;;;;;;;;;;5094955;28;20619;-72
2020/12/24 10:34:28;;;;;;;;;;;;;;;;;;5081444;28;19958;-71
2020/12/24 10:36:54;;;;;;;;;;;;;;;;;;5106527;28;19995;-72
2020/12/24 10:39:20;;;;;;;;;;;;;;;;;;5091427;28;20244;-70
2020/12/24 10:41:46;;;;;;;;;;;;;;;;;;5094332;28;19995;-72
2020/12/24 10:44:12;;;;;;;;;;;;;;;;;;5081057;28;19908;-71
2020/12/24 10:46:38;;;;;;;;;;;;;;;;;;5081515;28;19998;-72
2020/12/24 10:49:04;;;;;;;;;;;;;;;;;;5104782;28;19912;-71
2020/12/24 10:51:30;;;;;;;;;;;;;;;;;;5101311;28;20341;-72
2020/12/24 10:53:56;;;;;;;;;;;;;;;;;;5085308;28;19912;-69
2020/12/24 10:56:22;;;;;;;;;;;;;;;;;;5123891;28;19912;-72
2020/12/24 10:58:48;;;;;;;;;;;;;;;;;;5126297;28;19935;-71
2020/12/24 11:01:14;;;;;;;;;;;;;;;;;;5105963;28;19916;-71
2020/12/24 11:03:40;;;;;;;;;;;;;;;;;;5103680;28;19934;-71
2020/12/24 11:06:06;;;;;;;;;;;;;;;;;;5084869;28;19959;-72
2020/12/24 11:08:32;;;;;;;;;;;;;;;;;;5082860;28;20395;-70
2020/12/24 11:10:58;;;;;;;;;;;;;;;;;;5078525;28;19922;-69
2020/12/24 11:13:24;;;;;;;;;;;;;;;;;;5084844;28;19958;-71
2020/12/24 11:15:49;;;;;;;;;;;;;;;;;;5091302;28;19943;-71
2020/12/24 11:18:15;;;;;;;;;;;;;;;;;;5101769;27;20429;-69
2020/12/24 11:20:41;;;;;;;;;;;;;;;;;;5086835;28;19962;-69
2020/12/24 11:23:07;;;;;;;;;;;;;;;;;;5099759;28;19954;-69
2020/12/24 11:25:34;;;;;;;;;;;;;;;;;;5082978;28;19955;-69
2020/12/24 11:28:00;;;;;;;;;;;;;;;;;;5091833;28;19918;-70
2020/12/24 11:30:26;;;;;;;;;;;;;;;;;;5100706;27;20295;-70
2020/12/24 11:32:52;;;;;;;;;;;;;;;;;;5085017;27;19960;-68
2020/12/24 11:35:18;;;;;;;;;;;;;;;;;;5083027;28;19922;-69
2020/12/24 11:37:44;;;;;;;;;;;;;;;;;;5081339;28;19908;-70
2020/12/24 11:40:10;;;;;;;;;;;;;;;;;;5107384;28;19908;-69
2020/12/24 11:42:36;;;;;;;;;;;;;;;;;;5084458;28;19923;-70
2020/12/24 11:45:02;;;;;;;;;;;;;;;;;;5103788;28;19955;-69
2020/12/24 11:47:28;;;;;;;;;;;;;;;;;;5104319;27;19971;-68
2020/12/24 11:49:54;;;;;;;;;;;;;;;;;;5087050;28;19947;-70
2020/12/24 11:52:20;;;;;;;;;;;;;;;;;;5088114;28;19955;-69
2020/12/24 11:54:46;;;;;;;;;;;;;;;;;;5093828;28;19962;-69
2020/12/24 11:57:11;;;;;;;;;;;;;;;;;;5104793;28;20286;-69
2020/12/24 11:59:39;;;;;;;;;;;;;;;;;;5094331;28;20002;-69
2020/12/24 12:02:06;;;;;;;;;;;;;;;;;;5085469;28;19951;-69
2020/12/24 12:04:32;;;;;;;;;;;;;;;;;;5082232;28;19920;-70
2020/12/24 12:06:58;;;;;;;;;;;;;;;;;;5080107;28;19909;-69
2020/12/24 12:09:24;;;;;;;;;;;;;;;;;;5080629;28;19927;-69
2020/12/24 12:11:50;;;;;;;;;;;;;;;;;;5084451;28;19982;-69
2020/12/24 12:14:16;;;;;;;;;;;;;;;;;;5082552;28;20376;-70
2020/12/24 12:16:42;;;;;;;;;;;;;;;;;;5082590;28;19965;-70
2020/12/24 12:19:08;;;;;;;;;;;;;;;;;;5079144;28;19940;-70
2020/12/24 12:21:34;;;;;;;;;;;;;;;;;;5080050;28;19966;-69
2020/12/24 12:24:00;;;;;;;;;;;;;;;;;;5081345;27;19908;-70
2020/12/24 12:26:26;;;;;;;;;;;;;;;;;;5089884;27;20874;-69
2020/12/24 12:28:52;;;;;;;;;;;;;;;;;;5080498;28;19947;-69
2020/12/24 12:31:18;;;;;;;;;;;;;;;;;;5086444;27;20693;-69
2020/12/24 12:33:44;;;;;;;;;;;;;;;;;;5106323;28;20450;-69
2020/12/24 12:36:09;;;;;;;;;;;;;;;;;;5091289;28;19959;-70
2020/12/24 12:38:35;;;;;;;;;;;;;;;;;;5088211;28;19951;-70
2020/12/24 12:41:01;;;;;;;;;;;;;;;;;;5104832;28;19963;-68
2020/12/24 12:43:27;;;;;;;;;;;;;;;;;;5089235;28;20386;-70
2020/12/24 12:45:53;;;;;;;;;;;;;;;;;;5109270;27;20378;-70
2020/12/24 12:48:19;;;;;;;;;;;;;;;;;;5106899;28;20498;-70
2020/12/24 12:50:45;;;;;;;;;;;;;;;;;;5089178;28;19963;-68
2020/12/24 12:53:11;;;;;;;;;;;;;;;;;;5110028;27;19947;-69
2020/12/24 12:55:37;;;;;;;;;;;;;;;;;;5085863;28;19943;-69
2020/12/24 12:58:03;;;;;;;;;;;;;;;;;;5091071;28;20590;-69
2020/12/24 13:00:29;;;;;;;;;;;;;;;;;;5108843;28;20386;-68
2020/12/24 13:02:55;;;;;;;;;;;;;;;;;;5110210;28;20379;-69
2020/12/24 13:05:21;;;;;;;;;;;;;;;;;;5101904;27;20011;-69
2020/12/24 13:07:46;;;;;;;;;;;;;;;;;;5092944;27;19942;-70
2020/12/24 13:10:12;;;;;;;;;;;;;;;;;;5107550;28;20006;-70
2020/12/24 13:12:38;;;;;;;;;;;;;;;;;;5102671;28;20069;-69
2020/12/24 13:15:04;;;;;;;;;;;;;;;;;;5110552;27;19911;-70
2020/12/24 13:17:30;;;;;;;;;;;;;;;;;;5089111;28;19918;-69
2020/12/24 13:19:56;;;;;;;;;;;;;;;;;;5085987;27;19938;-69
2020/12/24 13:22:22;;;;;;;;;;;;;;;;;;5108790;28;19918;-70
2020/12/24 13:24:48;;;;;;;;;;;;;;;;;;5105786;28;20455;-69
2020/12/24 13:27:14;;;;;;;;;;;;;;;;;;5103681;28;19962;-70
2020/12/24 13:29:40;;;;;;;;;;;;;;;;;;5107116;28;19974;-71
2020/12/24 13:32:06;;;;;;;;;;;;;;;;;;5110280;28;19916;-70
2020/12/24 13:34:32;;;;;;;;;;;;;;;;;;5089011;28;19912;-69
2020/12/24 13:36:58;;;;;;;;;;;;;;;;;;5096503;28;20186;-70
2020/12/24 13:39:25;;;;;;;;;;;;;;;;;;5108186;28;20002;-71
2020/12/24 13:41:51;;;;;;;;;;;;;;;;;;5102157;28;19923;-70
2020/12/24 13:44:17;;;;;;;;;;;;;;;;;;5099371;28;19908;-70
2020/12/24 13:46:43;;;;;;;;;;;;;;;;;;5082554;28;19985;-71
2020/12/24 13:49:09;;;;;;;;;;;;;;;;;;5100865;28;19951;-71
2020/12/24 13:51:34;;;;;;;;;;;;;;;;;;5106599;28;20010;-69
2020/12/24 13:54:00;;;;;;;;;;;;;;;;;;5110202;28;19908;-69
2020/12/24 13:56:26;;;;;;;;;;;;;;;;;;5108764;28;19915;-70
2020/12/24 13:58:52;;;;;;;;;;;;;;;;;;5109935;28;19915;-70
2020/12/24 14:01:18;;;;;;;;;;;;;;;;;;5079921;28;19952;-71
2020/12/24 14:03:44;;;;;;;;;;;;;;;;;;5108432;28;20356;-71
2020/12/24 14:06:10;;;;;;;;;;;;;;;;;;5098456;28;19954;-71
2020/12/24 14:08:36;;;;;;;;;;;;;;;;;;5096733;28;19950;-70
2020/12/24 14:11:02;;;;;;;;;;;;;;;;;;5080158;28;19947;-70
2020/12/24 14:13:28;;;;;;;;;;;;;;;;;;5098046;28;19963;-72
2020/12/24 14:15:54;;;;;;;;;;;;;;;;;;5099611;28;19955;-71
2020/12/24 14:18:19;;;;;;;;;;;;;;;;;;5076964;28;19978;-71
2020/12/24 14:20:45;;;;;;;;;;;;;;;;;;5102709;28;19986;-69
2020/12/24 14:23:11;;;;;;;;;;;;;;;;;;5098712;28;19944;-69
2020/12/24 14:25:38;;;;;;;;;;;;;;;;;;5100556;28;19915;-69
2020/12/24 14:28:04;;;;;;;;;;;;;;;;;;5100270;28;19916;-70
2020/12/24 14:30:29;;;;;;;;;;;;;;;;;;5098163;28;19963;-70
2020/12/24 14:32:55;;;;;;;;;;;;;;;;;;5097930;28;20418;-69
2020/12/24 14:35:21;;;;;;;;;;;;;;;;;;5100007;28;19926;-70
2020/12/24 14:37:47;;;;;;;;;;;;;;;;;;5099881;28;20016;-70
2020/12/24 14:40:13;;;;;;;;;;;;;;;;;;5095901;28;19938;-71
2020/12/24 14:42:39;;;;;;;;;;;;;;;;;;5094694;28;19915;-70
2020/12/24 14:45:05;;;;;;;;;;;;;;;;;;5107778;27;19912;-70
2020/12/24 14:47:31;;;;;;;;;;;;;;;;;;5104405;27;20426;-69
2020/12/24 14:49:58;;;;;;;;;;;;;;;;;;5103647;28;19920;-70
2020/12/24 14:52:24;;;;;;;;;;;;;;;;;;5101854;27;19916;-69
2020/12/24 14:54:50;;;;;;;;;;;;;;;;;;5105602;27;19954;-70
2020/12/24 14:57:16;;;;;;;;;;;;;;;;;;5111883;27;20351;-69
2020/12/24 14:59:42;;;;;;;;;;;;;;;;;;5104786;27;19912;-70
2020/12/24 15:02:07;;;;;;;;;;;;;;;;;;5112884;27;20353;-70
2020/12/24 15:04:33;;;;;;;;;;;;;;;;;;5087925;28;19916;-70
2020/12/24 15:06:59;;;;;;;;;;;;;;;;;;5083140;28;19912;-69
2020/12/24 15:09:25;;;;;;;;;;;;;;;;;;5102637;27;19961;-70
2020/12/24 15:11:51;;;;;;;;;;;;;;;;;;5097349;27;19916;-69
2020/12/24 15:14:17;;;;;;;;;;;;;;;;;;5105830;28;19908;-69
2020/12/24 15:16:43;;;;;;;;;;;;;;;;;;5108623;28;19977;-69
2020/12/24 15:19:09;;;;;;;;;;;;;;;;;;5084990;28;19918;-70
2020/12/24 15:21:35;;;;;;;;;;;;;;;;;;5112002;28;19911;-69
2020/12/24 15:24:01;;;;;;;;;;;;;;;;;;5079599;28;19908;-69
2020/12/24 15:26:26;;;;;;;;;;;;;;;;;;5106431;27;19954;-70
2020/12/24 15:28:52;;;;;;;;;;;;;;;;;;5090513;28;19916;-70
2020/12/24 15:31:18;;;;;;;;;;;;;;;;;;5100020;28;19915;-70
2020/12/24 15:33:44;;;;;;;;;;;;;;;;;;5108597;28;19909;-67
2020/12/24 15:36:10;;;;;;;;;;;;;;;;;;5089397;28;20011;-69
2020/12/24 15:38:36;;;;;;;;;;;;;;;;;;5114149;28;20323;-71
2020/12/24 15:41:02;;;;;;;;;;;;;;;;;;5104047;27;19953;-71
2020/12/24 15:43:28;;;;;;;;;;;;;;;;;;5092759;28;20370;-71
2020/12/24 15:45:54;;;;;;;;;;;;;;;;;;5102891;28;19912;-70
2020/12/24 15:48:20;;;;;;;;;;;;;;;;;;5110209;28;20285;-71
2020/12/24 15:50:46;;;;;;;;;;;;;;;;;;5102453;28;20004;-70
2020/12/24 15:53:11;;;;;;;;;;;;;;;;;;5108143;27;20003;-71
2020/12/24 15:55:37;;;;;;;;;;;;;;;;;;5080797;28;19934;-71
2020/12/24 15:58:03;;;;;;;;;;;;;;;;;;5104324;28;19925;-70
2020/12/24 16:00:29;;;;;;;;;;;;;;;;;;5110159;27;19915;-71
2020/12/24 16:02:55;;;;;;;;;;;;;;;;;;5083108;28;20016;-71
2020/12/24 16:05:21;;;;;;;;;;;;;;;;;;5111100;28;19965;-70
2020/12/24 16:07:47;;;;;;;;;;;;;;;;;;5100786;28;19912;-71
2020/12/24 16:10:13;;;;;;;;;;;;;;;;;;5073618;28;19908;-69
2020/12/24 16:12:39;;;;;;;;;;;;;;;;;;5085831;28;19972;-70
2020/12/24 16:15:05;;;;;;;;;;;;;;;;;;5098801;28;19912;-71
2020/12/24 16:17:31;;;;;;;;;;;;;;;;;;5099484;28;20340;-70
2020/12/24 16:19:57;;;;;;;;;;;;;;;;;;5110493;28;19993;-71
2020/12/24 16:22:23;;;;;;;;;;;;;;;;;;5103650;28;20102;-71
2020/12/24 16:24:49;;;;;;;;;;;;;;;;;;5085335;28;19908;-71
2020/12/24 16:27:15;;;;;;;;;;;;;;;;;;5093831;28;19908;-69
2020/12/24 16:29:41;;;;;;;;;;;;;;;;;;5080060;28;19951;-70
2020/12/24 16:32:07;;;;;;;;;;;;;;;;;;5096383;27;19924;-70
2020/12/24 16:34:32;;;;;;;;;;;;;;;;;;5105312;27;20345;-71
2020/12/24 16:36:58;;;;;;;;;;;;;;;;;;5107116;27;19999;-70